Time;durP1;ratioP1;P1;durP2;ratioP2;P2;SDS_P1;SDS_P2;PMS_P1;PMS_P2;Temp;Humidity;BMP_temperature;BMP_pressure;BME280_temperature;BME280_humidity;BME280_pressure;Samples;Min_cycle;Max_cycle;Signal;HPM_P1;HPM_P2
2023/01/25 00:02:41;;;;;;;13.30;7.30;;;;;;;0.22;100.00;100975.91;273851;1272;23239;-90
2023/01/25 00:08:48;;;;;;;11.80;6.50;;;;;;;0.23;100.00;100968.91;273663;1267;23634;-91
2023/01/25 00:14:49;;;;;;;15.00;7.30;;;;;;;0.22;100.00;100957.22;273836;1266;22355;-90
2023/01/25 00:20:51;;;;;;;14.00;7.10;;;;;;;0.19;100.00;100960.86;273717;1267;22204;-92
2023/01/25 00:26:52;;;;;;;16.20;7.10;;;;;;;0.16;100.00;100954.27;273788;1266;22328;-90
2023/01/25 00:33:17;;;;;;;11.50;6.30;;;;;;;0.14;100.00;100956.15;273748;1267;22341;-93
2023/01/25 00:39:24;;;;;;;9.90;6.60;;;;;;;0.12;100.00;100957.30;273775;1266;22457;-90
2023/01/25 00:45:26;;;;;;;12.60;7.30;;;;;;;0.11;100.00;100956.54;273859;1266;23136;-91
2023/01/25 00:51:29;;;;;;;12.60;7.70;;;;;;;0.09;100.00;100950.99;273907;1267;23359;-93
2023/01/25 00:57:30;;;;;;;13.80;7.20;;;;;;;0.10;100.00;100943.79;273891;1266;22497;-90
2023/01/25 01:03:31;;;;;;;11.90;6.40;;;;;;;0.11;100.00;100933.98;273834;1268;23062;-91
2023/01/25 01:09:33;;;;;;;12.90;6.40;;;;;;;0.13;100.00;100925.97;273905;1268;22399;-92
2023/01/25 01:15:36;;;;;;;10.20;5.90;;;;;;;0.15;100.00;100922.77;273696;1267;22417;-91
2023/01/25 01:21:37;;;;;;;10.30;6.00;;;;;;;0.17;100.00;100912.27;273700;1267;22349;-91
2023/01/25 01:27:40;;;;;;;11.50;6.20;;;;;;;0.18;100.00;100902.21;273875;1270;22339;-91
2023/01/25 01:33:41;;;;;;;9.70;5.50;;;;;;;0.20;100.00;100899.78;273847;1270;22339;-90
2023/01/25 01:39:43;;;;;;;12.50;7.20;;;;;;;0.19;100.00;100882.06;273876;1269;22246;-93
2023/01/25 01:45:48;;;;;;;12.10;6.90;;;;;;;0.19;100.00;100861.85;273911;1263;22473;-90
2023/01/25 01:51:55;;;;;;;11.00;6.20;;;;;;;0.18;100.00;100854.42;273823;1266;23048;-92
2023/01/25 01:58:02;;;;;;;;;;;;;;;0.15;100.00;100848.91;273751;1266;22531;-91
2023/01/25 02:04:04;;;;;;;11.50;6.90;;;;;;;0.14;100.00;100844.86;273982;1265;22396;-91
2023/01/25 02:10:11;;;;;;;11.00;6.30;;;;;;;0.17;100.00;100842.84;273768;1266;22327;-91
2023/01/25 02:16:16;;;;;;;12.10;6.70;;;;;;;0.19;100.00;100835.69;273876;1267;22177;-91
2023/01/25 02:22:21;;;;;;;12.90;5.70;;;;;;;0.20;100.00;100833.27;273847;1269;22448;-91
2023/01/25 02:28:50;;;;;;;14.60;7.90;;;;;;;0.25;100.00;100832.25;273904;1268;23174;-89
2023/01/25 02:34:51;;;;;;;17.10;8.90;;;;;;;0.23;100.00;100832.57;273908;1268;23100;-90
2023/01/25 02:41:11;;;;;;;15.20;9.00;;;;;;;0.24;100.00;100840.11;273840;1266;23026;-90
2023/01/25 02:47:14;;;;;;;14.40;8.30;;;;;;;0.25;100.00;100840.70;273921;1272;22598;-90
2023/01/25 02:53:21;;;;;;;19.70;11.00;;;;;;;0.24;100.00;100833.01;273985;1269;22448;-92
2023/01/25 02:59:22;;;;;;;18.40;8.90;;;;;;;0.23;100.00;100831.86;273886;1269;22359;-91
2023/01/25 03:05:28;;;;;;;19.80;9.90;;;;;;;0.19;100.00;100833.20;273754;1272;22389;-90
2023/01/25 03:11:30;;;;;;;19.20;8.90;;;;;;;0.21;100.00;100829.39;273717;1271;22268;-90
2023/01/25 03:17:32;;;;;;;18.80;9.40;;;;;;;0.25;100.00;100829.63;273707;1267;22413;-91
2023/01/25 03:23:34;;;;;;;19.10;10.20;;;;;;;0.21;100.00;100828.79;273908;1267;23332;-90
2023/01/25 03:29:37;;;;;;;15.80;8.50;;;;;;;0.21;100.00;100828.14;273729;1267;22419;-90
2023/01/25 03:35:41;;;;;;;23.10;10.10;;;;;;;0.18;100.00;100826.31;273861;1267;22235;-92
2023/01/25 03:41:42;;;;;;;24.50;12.00;;;;;;;0.15;100.00;100828.08;273939;1266;23060;-92
2023/01/25 03:47:45;;;;;;;37.90;18.70;;;;;;;0.16;100.00;100824.09;273674;1267;22217;-92
2023/01/25 03:53:47;;;;;;;23.90;11.60;;;;;;;0.15;100.00;100821.77;273695;1267;23277;-90
2023/01/25 03:59:50;;;;;;;21.00;11.10;;;;;;;0.18;100.00;100819.09;273656;1270;22299;-91
2023/01/25 04:05:52;;;;;;;21.10;10.90;;;;;;;0.22;100.00;100816.30;273610;1267;23407;-91
2023/01/25 04:11:54;;;;;;;20.70;11.10;;;;;;;0.25;100.00;100814.52;273790;1267;24176;-92
2023/01/25 04:17:55;;;;;;;21.00;11.50;;;;;;;0.23;100.00;100812.48;273773;1267;22500;-90
2023/01/25 04:23:58;;;;;;;24.70;12.40;;;;;;;0.20;100.00;100805.89;273939;1267;22254;-90
2023/01/25 04:30:00;;;;;;;21.10;11.50;;;;;;;0.16;100.00;100797.05;273788;1267;22438;-91
2023/01/25 04:36:02;;;;;;;22.50;11.30;;;;;;;0.12;100.00;100784.91;273768;1267;127978;-91
2023/01/25 04:42:04;;;;;;;25.10;13.30;;;;;;;0.11;100.00;100779.57;273639;1267;22341;-91
2023/01/25 04:48:08;;;;;;;28.20;12.60;;;;;;;0.09;100.00;100777.03;273715;1266;22428;-90
2023/01/25 04:54:10;;;;;;;24.40;12.60;;;;;;;0.09;100.00;100778.54;273819;1267;22364;-91
2023/01/25 05:00:13;;;;;;;24.20;12.00;;;;;;;0.08;100.00;100776.50;273637;1267;22990;-90
2023/01/25 05:06:14;;;;;;;19.80;10.60;;;;;;;0.11;100.00;100770.20;273703;1267;22415;-90
2023/01/25 05:12:16;;;;;;;24.80;11.10;;;;;;;0.10;100.00;100769.88;273712;1267;23216;-91
2023/01/25 05:18:26;;;;;;;28.10;12.80;;;;;;;0.09;100.00;100768.46;273780;1267;22969;-89
2023/01/25 05:24:30;;;;;;;37.70;18.90;;;;;;;0.11;100.00;100771.27;273613;1266;22372;-90
2023/01/25 05:30:33;;;;;;;26.90;12.70;;;;;;;0.11;100.00;100764.98;273492;1257;22283;-90
2023/01/25 05:36:44;;;;;;;40.10;19.00;;;;;;;0.11;100.00;100764.11;273846;1267;22886;-90
2023/01/25 05:42:53;;;;;;;26.90;12.50;;;;;;;0.12;100.00;100763.09;273738;1267;22196;-91
2023/01/25 05:48:55;;;;;;;24.40;11.20;;;;;;;0.13;100.00;100758.20;273763;1266;23504;-90
2023/01/25 05:54:59;;;;;;;25.40;11.00;;;;;;;0.12;100.00;100756.63;273770;1267;22345;-91
2023/01/25 06:01:01;;;;;;;31.00;12.90;;;;;;;0.10;100.00;100753.28;273808;1267;22373;-91
2023/01/25 06:07:11;;;;;;;28.80;13.90;;;;;;;0.10;100.00;100751.98;273803;1266;22345;-91
2023/01/25 06:13:12;;;;;;;30.60;12.90;;;;;;;0.05;100.00;100753.91;273850;1266;22330;-90
2023/01/25 06:19:16;;;;;;;27.90;11.50;;;;;;;0.01;100.00;100758.38;273624;1266;22358;-89
2023/01/25 06:25:47;;;;;;;33.90;16.10;;;;;;;0.01;100.00;100758.48;273685;1266;22525;-90
2023/01/25 06:31:49;;;;;;;29.10;14.00;;;;;;;0.05;100.00;100757.53;273741;1266;22239;-90
2023/01/25 06:37:50;;;;;;;30.90;13.70;;;;;;;0.07;100.00;100753.28;273787;1266;22977;-90
2023/01/25 06:43:52;;;;;;;28.70;13.00;;;;;;;0.05;100.00;100748.42;273810;1266;24364;-91
2023/01/25 06:49:53;;;;;;;31.30;14.50;;;;;;;0.06;100.00;100741.10;273721;1266;22350;-90
2023/01/25 06:55:59;;;;;;;31.40;16.00;;;;;;;0.07;100.00;100733.51;273708;1266;23512;-92
2023/01/25 07:02:00;;;;;;;32.40;13.50;;;;;;;0.08;100.00;100725.77;273801;1266;22328;-91
2023/01/25 07:08:01;;;;;;;30.50;13.50;;;;;;;0.08;100.00;100722.80;273653;1266;22353;-91
2023/01/25 07:14:03;;;;;;;34.90;17.90;;;;;;;0.09;100.00;100727.75;273816;1266;22440;-92
2023/01/25 07:20:04;;;;;;;30.20;15.40;;;;;;;0.12;100.00;100727.88;273638;1267;22892;-90
2023/01/25 07:26:10;;;;;;;28.80;12.00;;;;;;;0.18;100.00;100724.56;273747;1266;23600;-90
2023/01/25 07:32:33;;;;;;;29.80;12.10;;;;;;;0.24;100.00;100719.50;273936;1267;22391;-94
2023/01/25 07:38:59;;;;;;;23.20;11.80;;;;;;;0.28;100.00;100716.13;274219;1266;22305;-95
2023/01/25 07:45:32;;;;;;;29.00;13.10;;;;;;;0.32;100.00;100715.86;274281;1253;22485;-92
2023/01/25 07:52:15;;;;;;;26.10;12.60;;;;;;;0.32;100.00;100710.42;273855;1269;22278;-94
2023/01/25 08:03:30;;;;;;;25.20;12.30;;;;;;;0.38;100.00;100696.31;265166;1304;544956;-91
2023/01/25 08:09:33;;;;;;;24.60;10.20;;;;;;;0.39;100.00;100695.45;270665;1279;24239;-91
2023/01/25 08:15:35;;;;;;;23.70;11.40;;;;;;;0.43;100.00;100684.37;271848;1276;214097;-90
2023/01/25 08:21:37;;;;;;;23.70;10.40;;;;;;;0.48;100.00;100677.54;272023;1276;22425;-90
2023/01/25 08:27:39;;;;;;;24.50;11.90;;;;;;;0.49;100.00;100672.46;272123;1276;22454;-90
2023/01/25 08:33:43;;;;;;;22.30;10.00;;;;;;;0.49;100.00;100669.98;271863;1276;23012;-91
2023/01/25 08:39:45;;;;;;;17.80;9.50;;;;;;;0.55;100.00;100664.20;269819;1276;22414;-89
2023/01/25 08:45:55;;;;;;;24.40;10.90;;;;;;;0.59;100.00;100659.74;272037;1277;22412;-89
2023/01/25 08:51:57;;;;;;;20.70;10.40;;;;;;;0.63;100.00;100662.66;271777;1277;22424;-89
2023/01/25 08:57:59;;;;;;;20.10;10.70;;;;;;;0.66;100.00;100661.05;271192;1276;23032;-90
2023/01/25 09:04:01;;;;;;;22.70;10.90;;;;;;;0.65;100.00;100662.55;271268;1277;23224;-90
2023/01/25 09:10:07;;;;;;;23.00;12.10;;;;;;;0.66;100.00;100662.61;271382;1276;23153;-91
2023/01/25 09:16:12;;;;;;;21.50;10.60;;;;;;;0.67;100.00;100656.30;271926;1276;22303;-90
2023/01/25 09:22:13;;;;;;;24.50;10.60;;;;;;;0.75;100.00;100650.52;271944;1276;22518;-90
2023/01/25 09:28:15;;;;;;;23.80;11.60;;;;;;;0.83;100.00;100642.48;271866;1276;22475;-90
2023/01/25 09:34:17;;;;;;;23.80;9.20;;;;;;;0.89;100.00;100637.04;270028;1276;22436;-90
2023/01/25 09:40:21;;;;;;;20.00;12.10;;;;;;;0.93;100.00;100625.75;273296;1269;22388;-90
2023/01/25 09:46:44;;;;;;;17.90;9.80;;;;;;;0.97;100.00;100618.52;272772;1269;22504;-90
2023/01/25 09:53:04;;;;;;;17.40;9.60;;;;;;;1.01;100.00;100606.00;270084;1264;22677;-90
2023/01/25 09:59:11;;;;;;;18.20;9.40;;;;;;;1.07;100.00;100594.48;269759;1268;22655;-90
2023/01/25 10:05:18;;;;;;;17.80;9.60;;;;;;;1.17;100.00;100583.41;269449;1269;25320;-90
2023/01/25 10:11:30;;;;;;;21.10;9.70;;;;;;;1.24;100.00;100574.52;270379;1270;23300;-89
2023/01/25 10:17:37;;;;;;;15.20;7.40;;;;;;;1.28;100.00;100560.16;270867;1270;22546;-90
2023/01/25 10:23:57;;;;;;;11.90;5.40;;;;;;;1.29;100.00;100553.36;271624;1269;22642;-90
2023/01/25 10:30:19;;;;;;;17.30;6.50;;;;;;;1.31;100.00;100541.27;271890;1270;22422;-90
2023/01/25 10:36:27;;;;;;;9.40;5.90;;;;;;;1.39;100.00;100529.79;273393;1270;22446;-90
2023/01/25 10:42:32;;;;;;;14.00;6.70;;;;;;;1.45;100.00;100525.23;273129;1270;23030;-90
2023/01/25 10:48:35;;;;;;;10.80;6.70;;;;;;;1.52;100.00;100515.63;272243;1269;22553;-90
2023/01/25 10:54:37;;;;;;;11.80;7.20;;;;;;;1.60;100.00;100506.73;272274;1269;22439;-90
2023/01/25 11:00:40;;;;;;;14.20;7.60;;;;;;;1.68;100.00;100504.09;272234;1270;22383;-90
2023/01/25 11:06:47;;;;;;;16.10;7.90;;;;;;;1.72;100.00;100501.36;272102;1270;23199;-90
2023/01/25 11:13:15;;;;;;;13.20;8.00;;;;;;;1.78;100.00;100489.66;272114;1270;22548;-90
2023/01/25 11:19:26;;;;;;;9.40;5.40;;;;;;;1.83;100.00;100486.55;271954;1271;23142;-91
2023/01/25 11:25:32;;;;;;;6.60;4.30;;;;;;;1.82;100.00;100474.07;272025;1271;22588;-91
2023/01/25 11:31:34;;;;;;;9.10;5.90;;;;;;;1.85;100.00;100469.73;272069;1270;22398;-91
2023/01/25 11:37:49;;;;;;;9.80;5.70;;;;;;;1.92;100.00;100458.98;271865;1270;22542;-90
2023/01/25 11:44:05;;;;;;;9.00;5.50;;;;;;;1.97;100.00;100447.55;272000;1272;22500;-91
2023/01/25 11:50:29;;;;;;;5.10;3.90;;;;;;;1.98;100.00;100434.58;272005;1270;22416;-91
2023/01/25 11:56:54;;;;;;;5.80;3.60;;;;;;;1.92;100.00;100422.36;271920;1271;22410;-90
2023/01/25 12:03:11;;;;;;;6.20;4.10;;;;;;;1.90;100.00;100416.44;272009;1271;23176;-91
2023/01/25 12:09:25;;;;;;;7.30;4.70;;;;;;;1.87;100.00;100410.74;271984;1270;22433;-89
2023/01/25 12:15:46;;;;;;;5.30;4.20;;;;;;;1.78;100.00;100400.23;272057;1270;23227;-90
2023/01/25 12:21:57;;;;;;;7.60;4.00;;;;;;;1.74;100.00;100391.42;272061;1270;22544;-91
2023/01/25 12:28:18;;;;;;;8.40;4.60;;;;;;;1.70;100.00;100383.19;272079;1271;22541;-90
2023/01/25 12:34:32;;;;;;;6.70;4.10;;;;;;;1.70;100.00;100373.90;272177;1270;22524;-90
2023/01/25 12:40:45;;;;;;;8.10;5.60;;;;;;;1.71;100.00;100373.52;272032;1262;22737;-90
2023/01/25 12:47:00;;;;;;;5.80;3.40;;;;;;;1.68;100.00;100360.10;271857;1270;22474;-90
2023/01/25 12:53:19;;;;;;;6.20;4.00;;;;;;;1.63;100.00;100354.64;271973;1270;22429;-91
2023/01/25 12:59:53;;;;;;;6.80;4.50;;;;;;;1.61;100.00;100345.95;271907;1271;22411;-89
2023/01/25 13:06:40;;;;;;;6.50;3.80;;;;;;;1.63;100.00;100337.24;272051;1272;22417;-90
2023/01/25 13:12:57;;;;;;;7.30;4.30;;;;;;;1.61;100.00;100334.79;270863;1272;22898;-87
2023/01/25 13:18:59;;;;;;;11.70;7.20;;;;;;;1.57;100.00;100330.13;271485;1272;22522;-90
2023/01/25 13:25:01;;;;;;;7.00;4.90;;;;;;;1.55;100.00;100326.80;271727;1272;23047;-90
2023/01/25 13:31:03;;;;;;;7.30;4.70;;;;;;;1.47;100.00;100318.23;268976;1273;22555;-89
2023/01/25 13:37:22;;;;;;;18.00;6.30;;;;;;;1.48;100.00;100320.06;272197;1272;22350;-89
2023/01/25 13:43:24;;;;;;;8.80;5.50;;;;;;;1.48;100.00;100312.60;272769;1272;23052;-90
2023/01/25 13:49:33;;;;;;;10.00;5.50;;;;;;;1.46;100.00;100300.65;271611;1273;22231;-89
2023/01/25 13:55:45;;;;;;;8.70;4.90;;;;;;;1.44;100.00;100299.64;271298;1272;22326;-90
2023/01/25 14:01:47;;;;;;;9.20;4.80;;;;;;;1.37;100.00;100294.67;271384;1270;22203;-90
2023/01/25 14:07:51;;;;;;;9.00;4.80;;;;;;;1.32;100.00;100290.14;272878;1269;22346;-89
2023/01/25 14:14:17;;;;;;;12.40;6.10;;;;;;;1.32;100.00;100285.66;269539;1270;22914;-90
2023/01/25 14:20:20;;;;;;;12.30;7.00;;;;;;;1.30;100.00;100273.33;272916;1269;23743;-90
2023/01/25 14:26:27;;;;;;;8.40;5.50;;;;;;;1.25;100.00;100269.32;272855;1270;22524;-90
2023/01/25 14:32:29;;;;;;;9.50;5.70;;;;;;;1.20;100.00;100265.37;272725;1272;22206;-89
2023/01/25 14:38:34;;;;;;;10.80;6.10;;;;;;;1.16;100.00;100258.62;272974;1270;22479;-90
2023/01/25 14:44:36;;;;;;;11.90;6.60;;;;;;;1.13;100.00;100252.83;272683;1270;23606;-90
2023/01/25 14:50:39;;;;;;;12.20;7.00;;;;;;;1.09;100.00;100255.02;272712;1271;22682;-90
2023/01/25 14:56:47;;;;;;;14.20;7.10;;;;;;;1.04;100.00;100252.79;272106;1270;22341;-90
2023/01/25 15:02:54;;;;;;;13.10;6.90;;;;;;;1.02;100.00;100243.46;272891;1271;22330;-90
2023/01/25 15:08:56;;;;;;;10.00;6.00;;;;;;;1.00;100.00;100242.55;272783;1271;22334;-90
2023/01/25 15:14:59;;;;;;;11.00;6.50;;;;;;;0.96;100.00;100237.75;272747;1270;22337;-90
2023/01/25 15:21:01;;;;;;;13.00;7.30;;;;;;;0.94;100.00;100237.33;272649;1272;22473;-89
2023/01/25 15:27:02;;;;;;;14.40;8.20;;;;;;;0.91;100.00;100231.05;272857;1272;22356;-90
2023/01/25 15:33:05;;;;;;;12.40;6.40;;;;;;;0.86;100.00;100222.73;272822;1270;23499;-88
2023/01/25 15:39:13;;;;;;;14.20;6.30;;;;;;;0.79;100.00;100217.88;272716;1270;22206;-89
2023/01/25 15:45:16;;;;;;;11.60;6.80;;;;;;;0.76;100.00;100211.97;272759;1271;23190;-89
2023/01/25 15:51:18;;;;;;;11.20;6.70;;;;;;;0.74;100.00;100206.49;272803;1272;22242;-89
2023/01/25 15:57:29;;;;;;;10.60;5.90;;;;;;;0.73;100.00;100206.92;272796;1271;22487;-89
2023/01/25 16:03:31;;;;;;;12.10;6.40;;;;;;;0.72;100.00;100192.80;272843;1263;22968;-90
2023/01/25 16:09:33;;;;;;;12.10;7.00;;;;;;;0.72;100.00;100190.00;272567;1269;23194;-90
2023/01/25 16:15:36;;;;;;;9.30;5.20;;;;;;;0.69;100.00;100193.10;273006;1276;22228;-88
2023/01/25 16:21:39;;;;;;;15.80;7.80;;;;;;;0.64;100.00;100184.73;272819;1264;23203;-89
2023/01/25 16:27:40;;;;;;;18.20;8.60;;;;;;;0.60;100.00;100180.66;272338;1269;23103;-90
2023/01/25 16:33:43;;;;;;;14.20;7.30;;;;;;;0.59;100.00;100171.95;265254;1270;10001533;-89
2023/01/25 16:39:45;;;;;;;19.50;9.70;;;;;;;0.59;100.00;100161.80;272684;1271;23678;-89
2023/01/25 16:45:47;;;;;;;16.20;8.60;;;;;;;0.60;100.00;100160.52;272741;1269;23081;-89
2023/01/25 16:51:49;;;;;;;18.30;10.00;;;;;;;0.57;100.00;100155.20;272754;1272;22507;-88
2023/01/25 16:57:51;;;;;;;14.90;7.80;;;;;;;0.54;100.00;100144.58;272801;1270;22360;-89
2023/01/25 17:03:54;;;;;;;17.80;8.60;;;;;;;0.52;100.00;100137.42;272591;1272;22285;-89
2023/01/25 17:09:56;;;;;;;19.80;11.00;;;;;;;0.50;100.00;100125.89;272480;1272;22405;-89
2023/01/25 17:15:59;;;;;;;18.60;8.70;;;;;;;0.48;100.00;100120.40;272474;1272;22242;-89
2023/01/25 17:22:02;;;;;;;15.30;8.70;;;;;;;0.46;100.00;100117.47;272532;1273;22318;-90
2023/01/25 17:28:03;;;;;;;21.40;10.80;;;;;;;0.44;100.00;100112.04;272406;1272;22468;-90
2023/01/25 17:34:07;;;;;;;18.60;9.40;;;;;;;0.42;100.00;100103.00;272602;1264;23218;-90
2023/01/25 17:40:09;;;;;;;22.20;12.00;;;;;;;0.41;100.00;100097.35;272367;1273;22461;-88
2023/01/25 17:46:20;;;;;;;23.50;11.50;;;;;;;0.43;100.00;100098.85;272352;1272;22286;-89
2023/01/25 17:52:22;;;;;;;17.40;10.30;;;;;;;0.39;100.00;100092.90;270484;1267;23084;-87
2023/01/25 17:58:24;;;;;;;18.90;11.20;;;;;;;0.36;100.00;100079.56;272480;1271;23411;-89
2023/01/25 18:04:26;;;;;;;21.70;11.90;;;;;;;0.34;100.00;100071.71;272831;1270;22355;-89
2023/01/25 18:10:27;;;;;;;19.20;10.40;;;;;;;0.33;100.00;100072.00;271536;1272;22625;-89
2023/01/25 18:16:30;;;;;;;24.20;13.10;;;;;;;0.30;100.00;100068.95;270175;1270;22427;-88
2023/01/25 18:22:32;;;;;;;26.80;15.50;;;;;;;0.27;100.00;100064.12;272770;1270;22994;-89
2023/01/25 18:28:34;;;;;;;27.00;14.70;;;;;;;0.24;100.00;100057.69;272795;1270;22305;-88
2023/01/25 18:34:36;;;;;;;26.40;14.50;;;;;;;0.21;100.00;100048.11;272883;1270;23245;-89
2023/01/25 18:40:39;;;;;;;30.50;15.00;;;;;;;0.20;100.00;100041.65;272881;1270;22833;-89
2023/01/25 18:46:41;;;;;;;30.30;16.70;;;;;;;0.19;100.00;100032.30;273015;1270;23353;-89
2023/01/25 18:52:43;;;;;;;31.30;16.00;;;;;;;0.20;100.00;100028.37;272810;1263;23131;-90
2023/01/25 18:58:45;;;;;;;31.30;16.60;;;;;;;0.20;100.00;100022.44;272956;1271;22259;-89
2023/01/25 19:04:47;;;;;;;30.40;16.10;;;;;;;0.20;100.00;100016.62;272823;1270;22181;-89
2023/01/25 19:10:51;;;;;;;38.20;17.90;;;;;;;0.19;100.00;100010.11;272869;1272;22352;-89
2023/01/25 19:16:53;;;;;;;42.20;21.20;;;;;;;0.16;100.00;100001.64;272694;1270;22334;-89
2023/01/25 19:22:55;;;;;;;41.70;19.90;;;;;;;0.15;100.00;99990.98;272935;1270;22441;-89
2023/01/25 19:28:57;;;;;;;45.20;21.20;;;;;;;0.15;100.00;99989.15;272992;1270;22382;-91
2023/01/25 19:34:58;;;;;;;44.00;21.30;;;;;;;0.13;100.00;99983.08;272875;1269;23407;-90
2023/01/25 19:41:08;;;;;;;42.20;19.70;;;;;;;0.10;100.00;99976.80;272917;1270;22463;-89
2023/01/25 19:47:09;;;;;;;46.40;22.40;;;;;;;0.07;100.00;99971.29;273004;1270;22378;-88
2023/01/25 19:53:11;;;;;;;42.40;21.90;;;;;;;0.04;100.00;99967.71;272825;1270;23200;-89
2023/01/25 19:59:15;;;;;;;49.80;23.20;;;;;;;0.05;100.00;99963.98;272824;1272;22210;-90
2023/01/25 20:05:17;;;;;;;51.00;24.00;;;;;;;0.07;100.00;99960.08;272050;1270;22677;-88
2023/01/25 20:11:20;;;;;;;41.90;19.70;;;;;;;0.07;100.00;99952.55;272742;1271;23171;-90
2023/01/25 20:17:22;;;;;;;41.80;21.30;;;;;;;0.04;100.00;99944.13;273578;1257;139808;-89
2023/01/25 20:23:24;;;;;;;48.10;22.10;;;;;;;0.01;100.00;99944.48;272027;1267;22339;-90
2023/01/25 20:29:27;;;;;;;48.80;23.20;;;;;;;0.01;100.00;99939.23;273394;1266;23203;-90
2023/01/25 20:35:29;;;;;;;50.60;24.80;;;;;;;0.03;100.00;99938.48;273410;1267;23343;-89
2023/01/25 20:41:31;;;;;;;54.40;25.20;;;;;;;0.02;100.00;99932.45;273506;1267;22385;-89
2023/01/25 20:47:32;;;;;;;49.80;24.30;;;;;;;0.02;100.00;99928.91;273672;1267;22243;-89
2023/01/25 20:53:34;;;;;;;39.70;19.90;;;;;;;0.02;100.00;99924.98;273674;1267;22276;-89
2023/01/25 20:59:36;;;;;;;40.90;20.90;;;;;;;-0.01;100.00;99917.36;273534;1267;22222;-90
2023/01/25 21:05:38;;;;;;;38.00;18.80;;;;;;;-0.02;100.00;99915.80;273678;1267;22327;-89
2023/01/25 21:11:39;;;;;;;38.10;19.20;;;;;;;-0.06;100.00;99919.17;272071;1267;23563;-90
2023/01/25 21:17:41;;;;;;;34.10;16.60;;;;;;;-0.07;100.00;99915.63;273848;1267;22335;-90
2023/01/25 21:23:44;;;;;;;36.50;18.10;;;;;;;-0.07;100.00;99906.16;273891;1266;22870;-89
2023/01/25 21:29:46;;;;;;;37.90;19.20;;;;;;;-0.06;100.00;99899.58;273818;1267;22322;-89
2023/01/25 21:35:51;;;;;;;32.80;15.50;;;;;;;-0.04;100.00;99893.11;271970;1267;22595;-89
2023/01/25 21:41:53;;;;;;;32.20;16.60;;;;;;;-0.06;100.00;99894.10;270474;1263;22240;-90
2023/01/25 21:47:58;;;;;;;33.50;16.30;;;;;;;-0.09;100.00;99892.72;272891;1266;22844;-89
2023/01/25 21:54:00;;;;;;;36.60;18.80;;;;;;;-0.10;100.00;99891.23;271035;1266;22561;-90
2023/01/25 22:00:04;;;;;;;37.70;18.90;;;;;;;-0.10;100.00;99883.36;272914;1266;22233;-90
2023/01/25 22:06:06;;;;;;;44.40;19.80;;;;;;;-0.10;100.00;99870.52;273848;1266;23213;-90
2023/01/25 22:12:08;;;;;;;36.20;17.00;;;;;;;-0.09;100.00;99860.48;272244;1267;22188;-91
2023/01/25 22:18:10;;;;;;;41.10;20.40;;;;;;;-0.08;100.00;99857.56;271602;1266;22978;-90
2023/01/25 22:24:12;;;;;;;40.70;21.20;;;;;;;-0.06;100.00;99850.28;270246;1267;23881;-89
2023/01/25 22:30:14;;;;;;;42.30;20.40;;;;;;;-0.06;100.00;99840.05;272695;1266;22535;-90
2023/01/25 22:36:17;;;;;;;49.60;21.90;;;;;;;-0.09;100.00;99833.30;273736;1266;22294;-90
2023/01/25 22:42:18;;;;;;;39.50;19.40;;;;;;;-0.09;100.00;99828.52;273650;1266;22318;-89
2023/01/25 22:48:20;;;;;;;37.70;18.20;;;;;;;-0.16;100.00;99826.59;273636;1267;22393;-89
2023/01/25 22:54:22;;;;;;;36.40;17.30;;;;;;;-0.22;100.00;99825.67;273751;1267;22315;-89
2023/01/25 23:00:23;;;;;;;36.50;17.70;;;;;;;-0.27;100.00;99822.98;273667;1267;22338;-90
2023/01/25 23:06:27;;;;;;;34.10;17.30;;;;;;;-0.30;100.00;99815.91;273854;1266;22206;-90
2023/01/25 23:12:29;;;;;;;33.50;17.30;;;;;;;-0.28;100.00;99804.95;273649;1267;22205;-89
2023/01/25 23:18:49;;;;;;;36.20;17.50;;;;;;;-0.27;100.00;99797.70;273781;1266;22396;-89
2023/01/25 23:24:51;;;;;;;34.50;16.80;;;;;;;-0.25;100.00;99794.71;273759;1266;22219;-90
2023/01/25 23:31:09;;;;;;;40.10;18.00;;;;;;;-0.24;100.00;99786.09;273647;1266;22324;-89
2023/01/25 23:37:11;;;;;;;36.00;17.80;;;;;;;-0.24;100.00;99782.13;273677;1266;22357;-89
2023/01/25 23:43:13;;;;;;;34.00;17.90;;;;;;;-0.27;100.00;99777.77;271700;1267;22643;-89
2023/01/25 23:49:15;;;;;;;39.40;19.30;;;;;;;-0.33;100.00;99771.55;270121;1267;22536;-89
2023/01/25 23:55:17;;;;;;;35.90;17.50;;;;;;;-0.37;100.00;99763.30;270393;1266;23125;-89
